createdAt,value
2017-04-27T00:07:05.425Z,0
2017-04-27T00:14:58.914Z,0
2017-04-27T00:15:47.742Z,0
2017-04-27T00:16:38.093Z,0
2017-04-27T00:17:33.290Z,0
2017-04-27T00:18:24.997Z,0
2017-04-27T01:32:06.302Z,0
2017-04-27T01:32:55.769Z,0
2017-04-27T01:33:44.900Z,0
2017-04-27T01:34:34.186Z,0
2017-04-27T01:35:25.337Z,0
2017-04-27T01:36:14.344Z,0
2017-04-27T01:37:03.192Z,0
2017-04-27T01:37:56.344Z,0
2017-04-27T01:38:45.647Z,0
2017-04-27T01:45:24.223Z,0
2017-04-27T01:46:13.374Z,0
2017-04-27T01:47:01.618Z,0
2017-04-27T01:47:50.260Z,0
2017-04-27T01:48:38.973Z,0
2017-04-27T01:49:27.542Z,0
2017-04-27T01:50:16.396Z,0
2017-04-27T01:51:04.895Z,0
2017-04-27T01:51:53.420Z,0
2017-04-27T01:52:42.037Z,0
2017-04-27T01:53:38.869Z,0
2017-04-27T01:56:06.760Z,0
2017-04-27T02:02:13.552Z,0
2017-04-27T02:03:03.742Z,0
2017-04-27T02:03:53.604Z,0
2017-04-27T02:04:43.107Z,0
2017-04-27T02:05:32.208Z,0
2017-04-27T02:06:21.579Z,0
2017-04-27T02:07:10.432Z,0
2017-04-27T02:07:58.696Z,0
2017-04-27T02:08:47.439Z,0
2017-04-27T02:09:36.044Z,0
2017-04-27T02:10:24.648Z,0
2017-04-27T02:11:13.442Z,0
2017-04-27T02:12:01.924Z,0
2017-04-27T02:12:50.461Z,0
2017-04-27T02:13:39.470Z,0
2017-04-27T02:17:53.065Z,0
2017-04-27T02:18:42.587Z,0
2017-04-27T02:19:31.633Z,0
2017-04-27T02:20:20.597Z,0
2017-04-27T02:21:10.676Z,0
2017-04-27T02:21:59.003Z,0
2017-04-27T02:22:48.004Z,0
2017-04-27T02:23:36.988Z,0
2017-04-27T02:24:25.818Z,0
2017-04-27T02:25:15.626Z,0
2017-04-27T02:26:04.102Z,0
2017-04-27T02:26:53.288Z,0
2017-04-27T02:27:41.707Z,0
2017-04-27T02:28:30.750Z,0
2017-04-27T02:29:19.676Z,0
2017-04-27T02:30:08.698Z,0
2017-04-27T02:30:57.037Z,0
2017-04-27T02:33:42.432Z,0
2017-04-27T02:36:31.453Z,0
2017-04-27T02:37:24.944Z,0
2017-04-27T02:38:20.560Z,0
2017-04-27T02:39:16.872Z,0
2017-04-27T02:40:11.451Z,0
2017-04-27T02:41:05.424Z,0
2017-04-27T02:41:59.326Z,0
2017-04-27T02:42:52.782Z,0
2017-04-27T02:43:46.194Z,0
2017-04-27T02:44:39.972Z,0
2017-04-27T03:11:48.982Z,0
2017-04-27T03:12:37.940Z,0
2017-04-27T03:13:28.099Z,0
2017-04-27T03:16:17.769Z,0
2017-04-27T03:17:06.754Z,0
2017-04-27T03:18:09.252Z,0
2017-04-27T03:18:59.866Z,0
2017-04-27T03:19:48.113Z,0
2017-04-27T03:20:36.469Z,0
2017-04-27T03:21:25.462Z,0
2017-04-27T03:22:14.429Z,0
2017-04-27T03:23:02.661Z,0
2017-04-27T03:23:51.804Z,0
2017-04-27T03:41:32.042Z,0
2017-04-27T03:46:18.547Z,0
2017-04-27T03:47:03.281Z,0
2017-04-27T03:47:49.101Z,0
2017-04-27T03:48:37.500Z,0
2017-04-27T03:51:30.012Z,0
2017-04-27T03:53:53.896Z,0
2017-04-27T03:54:40.789Z,0
2017-04-27T03:55:20.598Z,0
2017-04-27T03:56:01.035Z,0
2017-04-27T04:09:28.506Z,5
2017-04-27T04:10:17.586Z,5
2017-04-27T04:25:23.729Z,10
2017-04-27T04:26:11.919Z,15
2017-04-27T04:27:00.837Z,15
2017-04-27T04:27:49.717Z,15
2017-04-27T04:28:38.382Z,15
2017-04-27T04:29:26.524Z,15
2017-04-27T04:30:15.501Z,15
2017-04-27T04:31:04.181Z,15
2017-04-27T04:31:52.404Z,15
2017-04-27T04:32:41.686Z,15
2017-04-27T04:35:24.092Z,20
2017-04-27T04:36:12.504Z,20
2017-04-27T04:37:01.249Z,20
2017-04-27T04:37:49.550Z,20
2017-04-27T04:38:38.371Z,20
2017-04-27T04:39:27.224Z,20
2017-04-27T04:40:15.863Z,20
2017-04-27T04:41:06.973Z,20
2017-04-27T04:41:55.628Z,20
2017-04-27T04:42:44.389Z,20
2017-04-27T04:43:33.015Z,25
2017-04-27T04:44:21.832Z,25
2017-04-27T04:45:10.464Z,25
2017-04-27T04:45:58.932Z,25
2017-04-27T04:46:47.631Z,25
2017-04-27T04:47:36.503Z,25
2017-04-27T04:48:25.262Z,25
2017-04-27T04:49:14.069Z,30
2017-04-27T04:50:02.372Z,30
2017-04-27T04:54:00.416Z,35
2017-04-27T04:54:48.349Z,35
2017-04-27T04:55:37.384Z,35
2017-04-27T04:56:26.329Z,35
2017-04-27T04:57:15.429Z,40
2017-04-27T04:58:06.848Z,40
2017-04-27T04:58:54.535Z,40
2017-04-27T04:59:43.438Z,40
2017-04-27T05:00:31.904Z,40
2017-04-27T05:01:21.353Z,40
2017-04-27T05:02:10.181Z,45
2017-04-27T05:03:01.343Z,45
2017-04-27T05:03:50.877Z,50
2017-04-27T05:04:39.339Z,55
2017-04-27T05:20:18.948Z,95
2017-04-27T05:21:06.865Z,100
2017-04-27T05:21:58.967Z,100
2017-04-27T05:22:48.634Z,105
2017-04-27T05:23:36.643Z,105
2017-04-27T05:24:25.492Z,110
2017-04-27T05:25:14.403Z,110
2017-04-27T05:31:11.287Z,120
2017-04-27T05:31:59.977Z,125
2017-04-27T05:32:48.672Z,125
2017-04-27T05:33:36.756Z,130
2017-04-27T05:34:30.703Z,135
2017-04-27T05:35:18.942Z,135
2017-04-27T05:36:07.749Z,140
2017-04-27T05:36:56.367Z,145
2017-04-27T05:37:45.223Z,150
2017-04-27T05:38:33.870Z,160
2017-04-27T05:39:22.375Z,165
2017-04-27T05:40:11.067Z,175
2017-04-27T05:40:59.812Z,175
2017-04-27T05:41:48.317Z,180
2017-04-27T05:42:38.097Z,185
2017-04-27T05:47:23.366Z,185
2017-04-27T05:48:12.796Z,185
2017-04-27T05:49:01.182Z,185
2017-04-27T05:49:50.700Z,185
2017-04-27T05:50:40.508Z,190
2017-04-27T05:51:29.893Z,200
2017-04-27T05:52:19.119Z,215
2017-04-27T05:53:07.332Z,220
2017-04-27T05:53:55.817Z,230
2017-04-27T05:54:44.511Z,240
2017-04-27T05:55:33.565Z,245
2017-04-27T05:56:21.876Z,250
2017-04-27T05:57:10.414Z,255
2017-04-27T05:57:59.044Z,260
2017-04-27T05:58:48.251Z,265
2017-04-27T05:59:36.365Z,275
2017-04-27T06:00:24.905Z,275
2017-04-27T06:01:13.796Z,275
2017-04-27T06:02:02.715Z,270
2017-04-27T06:02:51.133Z,270
2017-04-27T06:03:39.726Z,270
2017-04-27T06:04:28.244Z,270
2017-04-27T06:05:16.775Z,275
2017-04-27T06:06:05.388Z,280
2017-04-27T06:06:53.839Z,285
2017-04-27T06:07:43.705Z,290
2017-04-27T06:08:32.334Z,290
2017-04-27T06:09:20.809Z,290
2017-04-27T06:10:09.290Z,290
2017-04-27T06:10:57.896Z,300
2017-04-27T06:11:47.329Z,295
2017-04-27T06:12:35.884Z,300
2017-04-27T06:13:24.830Z,295
2017-04-27T06:14:14.772Z,295
2017-04-27T06:15:03.735Z,300
2017-04-27T06:15:52.025Z,320
2017-04-27T06:16:41.091Z,330
2017-04-27T06:22:20.147Z,460
2017-04-27T06:23:08.489Z,450
2017-04-27T06:23:57.333Z,445
2017-04-27T06:24:45.888Z,430
2017-04-27T06:25:34.450Z,415
2017-04-27T06:26:23.256Z,405
2017-04-27T06:27:11.876Z,405
2017-04-27T06:28:00.394Z,400
2017-04-27T06:28:48.966Z,380
2017-04-27T06:29:37.528Z,365
2017-04-27T06:30:26.712Z,340
2017-04-27T06:31:15.292Z,320
2017-04-27T06:32:03.800Z,300
2017-04-27T06:36:28.544Z,270
2017-04-27T06:37:18.551Z,270
2017-04-27T06:38:07.451Z,270
2017-04-27T06:39:00.968Z,280
2017-04-27T06:39:49.462Z,295
2017-04-27T06:40:38.248Z,305
2017-04-27T06:41:26.512Z,320
2017-04-27T06:42:15.757Z,330
2017-04-27T06:43:04.833Z,330
2017-04-27T06:43:53.150Z,335
2017-04-27T06:44:41.672Z,340
2017-04-27T06:45:31.223Z,345
2017-04-27T06:46:19.928Z,350
2017-04-27T06:47:08.829Z,360
2017-04-27T06:47:57.472Z,375
2017-04-27T06:48:46.376Z,400
2017-04-27T06:49:34.968Z,425
2017-04-27T06:50:23.459Z,450
2017-04-27T06:51:11.683Z,485
2017-04-27T06:52:00.859Z,505
2017-04-27T06:56:00.706Z,580
2017-04-27T06:56:49.228Z,600
2017-04-27T06:57:38.545Z,620
2017-04-27T06:58:28.625Z,630
2017-04-27T06:59:17.434Z,650
2017-04-27T07:00:06.162Z,680
2017-04-27T07:00:56.042Z,695
2017-04-27T07:01:45.932Z,695
2017-04-27T07:02:34.242Z,695
2017-04-27T07:03:23.428Z,755
2017-04-27T07:04:12.289Z,740
2017-04-27T07:05:03.496Z,720
2017-04-27T07:05:53.994Z,770
2017-04-27T07:06:44.236Z,775
2017-04-27T07:09:28.415Z,775
2017-04-27T07:12:13.172Z,780
2017-04-27T07:13:02.654Z,820
2017-04-27T07:13:52.345Z,820
2017-04-27T07:14:42.477Z,780
2017-04-27T07:15:31.313Z,770
2017-04-27T07:16:20.024Z,805
2017-04-27T07:17:08.607Z,810
2017-04-27T07:17:58.006Z,800
2017-04-27T07:18:46.068Z,815
2017-04-27T07:19:34.616Z,845
2017-04-27T07:20:23.650Z,875
2017-04-27T07:21:12.433Z,845
2017-04-27T07:22:02.420Z,840
2017-04-27T07:22:51.140Z,850
2017-04-27T07:23:39.649Z,880
2017-04-27T07:24:29.417Z,940
2017-04-27T07:25:18.579Z,1055
2017-04-27T07:26:07.343Z,1125
2017-04-27T07:48:49.609Z,2195
2017-04-27T07:49:38.097Z,2020
2017-04-27T07:50:26.793Z,1555
2017-04-27T07:51:15.386Z,1455
2017-04-27T07:52:04.238Z,1640
2017-04-27T07:54:26.672Z,2360
2017-04-27T07:55:15.295Z,2290
2017-04-27T07:56:04.831Z,2160
2017-04-27T07:58:30.203Z,1790
2017-04-27T07:59:18.195Z,1725
2017-04-27T08:00:06.511Z,1455
2017-04-27T08:00:55.964Z,1885
2017-04-27T08:01:44.882Z,1595
2017-04-27T08:02:33.392Z,1430
2017-04-27T08:03:21.971Z,1480
2017-04-27T08:04:10.510Z,1610
2017-04-27T08:04:59.722Z,1680
2017-04-27T08:05:48.424Z,1660
2017-04-27T08:06:36.597Z,1445
2017-04-27T08:07:25.556Z,1405
2017-04-27T08:08:13.956Z,1360
2017-04-27T08:09:02.861Z,1310
2017-04-27T08:09:51.381Z,1270
2017-04-27T08:32:45.214Z,1120
2017-04-27T08:33:33.875Z,1100
2017-04-27T08:34:22.844Z,1075
2017-04-27T08:35:11.051Z,1050
2017-04-27T08:35:59.613Z,1020
2017-04-27T08:36:48.463Z,970
2017-04-27T08:37:36.967Z,950
2017-04-27T08:38:25.852Z,930
2017-04-27T08:39:14.695Z,915
2017-04-27T08:40:02.936Z,905
2017-04-27T08:40:51.551Z,895
2017-04-27T08:41:40.652Z,890
2017-04-27T08:42:29.778Z,895
2017-04-27T08:43:19.256Z,950
2017-04-27T08:44:08.781Z,1060
2017-04-27T08:44:56.931Z,1140
2017-04-27T08:49:18.822Z,2045
2017-04-27T08:50:15.444Z,2085
2017-04-27T08:51:09.366Z,1830
2017-04-27T08:51:57.792Z,2320
2017-04-27T08:52:46.380Z,2660
2017-04-27T08:53:37.322Z,3085
2017-04-27T08:54:30.437Z,3345
2017-04-27T08:55:24.581Z,3015
2017-04-27T08:56:16.072Z,2820
2017-04-27T08:57:04.866Z,2745
2017-04-27T08:57:55.061Z,2685
2017-04-27T08:58:44.204Z,2750
2017-04-27T08:59:35.381Z,2710
2017-04-27T09:00:24.297Z,2880
2017-04-27T09:01:16.488Z,3100
2017-04-27T09:02:05.090Z,2770
2017-04-27T09:02:54.218Z,2755
2017-04-27T09:03:44.696Z,2740
2017-04-27T09:04:33.366Z,3035
2017-04-27T09:05:22.158Z,3010
2017-04-27T09:06:12.516Z,3180
2017-04-27T09:07:02.988Z,3485
2017-04-27T09:07:53.078Z,3515
2017-04-27T09:08:41.765Z,3655
2017-04-27T09:09:32.034Z,3515
2017-04-27T09:10:24.911Z,3315
2017-04-27T09:11:14.932Z,3535
2017-04-27T09:12:06.272Z,3500
2017-04-27T09:12:57.791Z,3925
2017-04-27T09:13:48.225Z,3750
2017-04-27T09:16:33.218Z,2755
2017-04-27T09:17:22.731Z,2380
2017-04-27T09:18:14.727Z,2365
2017-04-27T09:19:02.197Z,3345
2017-04-27T09:19:51.777Z,3005
2017-04-27T09:20:40.259Z,3805
2017-04-27T09:21:30.530Z,3730
2017-04-27T09:22:18.183Z,3740
2017-04-27T09:23:08.513Z,3605
2017-04-27T09:23:58.250Z,3535
2017-04-27T09:24:49.383Z,3715
2017-04-27T09:25:39.231Z,3935
2017-04-27T09:26:27.830Z,4105
2017-04-27T09:27:17.433Z,4215
2017-04-27T09:28:09.120Z,4380
2017-04-27T09:28:59.550Z,4475
2017-04-27T09:29:56.724Z,4075
2017-04-27T09:30:47.384Z,3975
2017-04-27T09:31:37.954Z,3855
2017-04-27T09:35:58.269Z,4195
2017-04-27T09:36:50.434Z,3965
2017-04-27T09:37:40.978Z,3705
2017-04-27T09:38:31.310Z,4010
2017-04-27T09:39:20.333Z,3920
2017-04-27T09:40:09.967Z,4085
2017-04-27T09:40:59.907Z,4140
2017-04-27T09:41:49.732Z,4420
2017-04-27T09:42:39.351Z,4890
2017-04-27T09:45:29.819Z,5340
2017-04-27T09:46:22.179Z,5665
2017-04-27T09:47:16.169Z,5345
2017-04-27T09:48:09.350Z,5315
2017-04-27T09:49:00.269Z,5445
2017-04-27T09:53:20.730Z,3925
2017-04-27T09:54:09.234Z,3615
2017-04-27T09:54:57.806Z,4325
2017-04-27T09:55:46.725Z,4960
2017-04-27T09:56:35.036Z,5110
2017-04-27T09:57:23.774Z,5190
2017-04-27T09:58:12.686Z,5135
2017-04-27T09:59:01.365Z,5035
2017-04-27T10:03:01.204Z,5565
2017-04-27T10:03:54.913Z,5590
2017-04-27T10:04:46.683Z,5140
2017-04-27T10:07:58.884Z,5085
2017-04-27T11:14:47.476Z,1270
2017-04-27T11:25:50.169Z,1670
2017-04-27T11:26:39.216Z,1575
2017-04-27T11:27:27.827Z,1465
2017-04-27T11:28:16.508Z,1360
2017-04-27T11:29:05.623Z,1270
2017-04-27T11:31:39.198Z,1110
2017-04-27T11:32:27.827Z,1080
2017-04-27T11:33:16.609Z,1060
2017-04-27T11:34:04.883Z,1035
2017-04-27T11:36:29.586Z,1035
2017-04-27T11:37:19.135Z,1040
2017-04-27T11:38:10.803Z,1050
2017-04-27T11:39:00.193Z,1060
2017-04-27T11:39:52.409Z,1060
2017-04-27T11:40:40.064Z,1060
2017-04-27T11:41:28.202Z,1055
2017-04-27T11:42:16.854Z,1050
2017-04-27T11:43:05.985Z,1055
2017-04-27T11:50:44.484Z,1215
2017-04-27T11:51:35.756Z,1285
2017-04-27T11:52:24.109Z,1365
2017-04-27T11:53:12.681Z,1435
2017-04-27T11:54:01.060Z,1625
2017-04-27T11:54:50.048Z,1895
2017-04-27T11:55:38.562Z,1860
2017-04-27T11:56:27.050Z,2060
2017-04-27T11:57:15.621Z,2120
2017-04-27T11:58:05.871Z,2115
2017-04-27T12:00:32.464Z,2750
2017-04-27T12:01:20.708Z,2365
2017-04-27T12:02:10.858Z,2520
2017-04-27T12:03:00.304Z,3250
2017-04-27T12:03:50.119Z,3410
2017-04-27T12:04:38.738Z,3870
2017-04-27T12:05:27.862Z,4135
2017-04-27T12:06:19.823Z,2915
2017-04-27T12:14:55.717Z,2570
2017-04-27T12:15:44.798Z,2920
2017-04-27T12:16:33.818Z,2850
2017-04-27T12:17:22.357Z,2650
2017-04-27T12:18:11.170Z,1660
2017-04-27T12:18:59.398Z,1390
2017-04-27T12:19:48.585Z,1265
2017-04-27T12:20:37.213Z,1175
2017-04-27T12:21:25.765Z,1160
2017-04-27T12:22:14.559Z,1275
2017-04-27T12:23:02.886Z,1125
2017-04-27T12:23:51.720Z,1125
2017-04-27T12:30:34.098Z,920
2017-04-27T12:31:23.631Z,895
2017-04-27T12:32:13.599Z,885
2017-04-27T12:33:02.230Z,885
2017-04-27T12:35:26.830Z,780
2017-04-27T12:36:21.297Z,710
2017-04-27T12:37:10.807Z,680
2017-04-27T12:38:11.982Z,670
2017-04-27T12:39:00.713Z,665
2017-04-27T12:39:49.778Z,660
2017-04-27T12:40:39.420Z,640
2017-04-27T12:41:30.383Z,620
2017-04-27T12:47:01.550Z,640
2017-04-27T12:47:54.190Z,650
2017-04-27T12:48:42.541Z,660
2017-04-27T12:49:31.624Z,675
2017-04-27T12:50:20.420Z,680
2017-04-27T12:51:09.147Z,695
2017-04-27T12:51:58.764Z,715
2017-04-27T12:52:46.909Z,740
2017-04-27T12:53:37.310Z,745
2017-04-27T12:54:26.580Z,750
2017-04-27T12:55:15.690Z,765
2017-04-27T12:56:04.134Z,785
2017-04-27T12:56:53.296Z,810
2017-04-27T12:57:41.840Z,850
2017-04-27T12:58:30.223Z,885
2017-04-27T12:59:18.854Z,930
2017-04-27T13:00:08.286Z,965
2017-04-27T13:00:56.733Z,1005
2017-04-27T13:01:46.960Z,1045
2017-04-27T13:02:34.119Z,1090
2017-04-27T13:03:22.258Z,1110
2017-04-27T13:04:11.662Z,1125
2017-04-27T13:05:00.385Z,1125
2017-04-27T13:05:48.835Z,1140
2017-04-27T13:06:37.774Z,1165
2017-04-27T13:07:26.576Z,1190
2017-04-27T13:08:15.562Z,1205
2017-04-27T13:09:04.151Z,1230
2017-04-27T13:11:26.060Z,1345
2017-04-27T13:12:16.386Z,1355
2017-04-27T13:13:04.666Z,1355
2017-04-27T13:15:28.592Z,1355
2017-04-27T13:16:17.342Z,1360
2017-04-27T13:17:06.097Z,1350
2017-04-27T13:20:05.499Z,1315
2017-04-27T13:20:52.131Z,1300
2017-04-27T13:21:40.938Z,1275
2017-04-27T13:22:29.690Z,1250
2017-04-27T13:23:18.888Z,1245
2017-04-27T13:24:07.393Z,1225
2017-04-27T13:24:56.169Z,1190
2017-04-27T13:25:44.339Z,1160
2017-04-27T13:26:34.088Z,1140
2017-04-27T13:27:22.169Z,1125
2017-04-27T13:28:10.292Z,1095
2017-04-27T13:28:59.280Z,1090
2017-04-27T13:29:47.868Z,1080
2017-04-27T13:30:36.415Z,1085
2017-04-27T13:31:25.814Z,1100
2017-04-27T13:32:14.192Z,1110
2017-04-27T13:36:20.504Z,1095
2017-04-27T13:37:09.194Z,1080
2017-04-27T13:37:58.555Z,1050
2017-04-27T13:38:49.017Z,1035
2017-04-27T13:39:37.843Z,1040
2017-04-27T13:40:28.043Z,1045
2017-04-27T13:41:16.992Z,1040
2017-04-27T13:42:05.783Z,1020
2017-04-27T13:42:55.103Z,1005
2017-04-27T13:43:53.689Z,980
2017-04-27T13:44:40.550Z,965
2017-04-27T13:45:30.265Z,945
2017-04-27T13:46:20.326Z,930
2017-04-27T13:47:09.350Z,910
2017-04-27T13:47:59.547Z,890
2017-04-27T13:48:47.611Z,870
2017-04-27T13:49:37.669Z,855
2017-04-27T13:50:27.066Z,840
2017-04-27T13:51:15.695Z,820
2017-04-27T13:52:05.088Z,800
2017-04-27T13:52:54.252Z,780
2017-04-27T13:53:45.370Z,765
2017-04-27T13:54:35.127Z,760
2017-04-27T13:55:25.343Z,745
2017-04-27T13:56:13.515Z,735
2017-04-27T13:57:02.284Z,725
2017-04-27T13:57:50.722Z,725
2017-04-27T13:58:39.958Z,715
2017-04-27T13:59:28.225Z,710
2017-04-27T14:00:20.603Z,715
2017-04-27T14:01:09.069Z,725
2017-04-27T14:01:57.716Z,735
2017-04-27T14:02:46.611Z,745
2017-04-27T14:03:35.571Z,755
2017-04-27T14:04:24.281Z,770
2017-04-27T14:05:12.691Z,800
2017-04-27T14:06:01.371Z,845
2017-04-27T14:10:00.526Z,860
2017-04-27T14:10:48.827Z,815
2017-04-27T14:11:37.356Z,785
2017-04-27T14:12:26.606Z,785
2017-04-27T14:13:15.921Z,795
2017-04-27T14:14:03.930Z,770
2017-04-27T14:14:52.819Z,740
2017-04-27T14:15:41.089Z,705
2017-04-27T14:16:29.937Z,670
2017-04-27T14:17:18.437Z,650
2017-04-27T14:18:07.459Z,630
2017-04-27T14:19:12.643Z,640
2017-04-27T14:20:01.718Z,650
2017-04-27T14:30:03.858Z,600
2017-04-27T14:34:33.709Z,700
2017-04-27T14:35:22.155Z,725
2017-04-27T14:36:11.636Z,760
2017-04-27T14:37:00.143Z,785
2017-04-27T14:37:49.217Z,795
2017-04-27T14:38:37.640Z,830
2017-04-27T14:49:19.850Z,580
2017-04-27T14:50:08.654Z,565
2017-04-27T14:52:29.702Z,560
2017-04-27T14:53:18.747Z,575
2017-04-27T14:54:07.732Z,575
2017-04-27T14:54:56.685Z,570
2017-04-27T14:55:45.138Z,565
2017-04-27T14:56:33.793Z,560
2017-04-27T14:57:22.323Z,555
2017-04-27T14:58:12.050Z,545
2017-04-27T14:59:00.227Z,535
2017-04-27T14:59:51.668Z,520
2017-04-27T15:00:40.259Z,515
2017-04-27T15:01:28.935Z,495
2017-04-27T15:02:17.495Z,500
2017-04-27T15:03:06.207Z,500
2017-04-27T15:03:55.138Z,505
2017-04-27T15:04:43.531Z,505
2017-04-27T15:05:31.848Z,500
2017-04-27T15:06:20.078Z,495
2017-04-27T15:07:13.297Z,480
2017-04-27T15:07:55.373Z,470
2017-04-27T15:08:36.540Z,465
2017-04-27T15:11:21.531Z,485
2017-04-27T15:12:09.984Z,485
2017-04-27T15:12:58.630Z,490
2017-04-27T15:21:59.699Z,490
2017-04-27T15:22:49.398Z,495
2017-04-27T15:23:38.483Z,495
2017-04-27T15:24:26.501Z,490
2017-04-27T15:25:14.972Z,490
2017-04-27T15:26:03.868Z,490
2017-04-27T15:26:52.921Z,490
2017-04-27T15:27:42.276Z,485
2017-04-27T15:28:30.958Z,480
2017-04-27T15:29:19.897Z,475
2017-04-27T15:30:08.428Z,465
2017-04-27T15:30:57.098Z,460
2017-04-27T15:31:45.583Z,450
2017-04-27T15:32:34.451Z,445
2017-04-27T15:33:23.909Z,440
2017-04-27T15:34:12.990Z,435
2017-04-27T15:35:00.738Z,435
2017-04-27T15:35:49.662Z,435
2017-04-27T15:36:38.496Z,435
2017-04-27T15:37:27.745Z,435
2017-04-27T15:38:16.512Z,430
2017-04-27T15:39:04.906Z,430
2017-04-27T15:39:53.833Z,425
2017-04-27T15:40:42.091Z,425
2017-04-27T15:41:31.081Z,430
2017-04-27T15:42:19.780Z,435
2017-04-27T15:43:08.025Z,440
2017-04-27T15:43:57.225Z,420
2017-04-27T15:44:45.930Z,405
2017-04-27T15:45:34.141Z,395
2017-04-27T15:46:23.365Z,395
2017-04-27T15:47:11.969Z,400
2017-04-27T15:48:00.004Z,425
2017-04-27T15:48:48.956Z,450
2017-04-27T15:49:37.785Z,485
2017-04-27T15:50:26.660Z,505
2017-04-27T15:51:15.025Z,500
2017-04-27T15:52:03.433Z,455
2017-04-27T15:52:52.102Z,420
2017-04-27T15:53:40.789Z,410
2017-04-27T15:54:29.749Z,405
2017-04-27T15:55:18.609Z,410
2017-04-27T15:56:08.097Z,410
2017-04-27T15:56:56.964Z,410
2017-04-27T15:57:45.462Z,405
2017-04-27T15:58:34.250Z,395
2017-04-27T15:59:16.209Z,390
2017-04-27T15:59:58.015Z,375
2017-04-27T16:00:40.241Z,365
2017-04-27T16:01:20.514Z,355
2017-04-27T16:02:01.124Z,345
2017-04-27T16:02:41.439Z,335
2017-04-27T16:03:26.340Z,330
2017-04-27T16:04:06.564Z,335
2017-04-27T16:04:50.438Z,310
2017-04-27T16:05:31.156Z,335
2017-04-27T16:06:12.512Z,335
2017-04-27T16:06:53.013Z,320
2017-04-27T16:07:34.902Z,315
2017-04-27T16:08:17.881Z,305
2017-04-27T16:09:05.407Z,300
2017-04-27T16:11:35.943Z,315
2017-04-27T16:12:24.486Z,320
2017-04-27T16:13:14.685Z,320
2017-04-27T16:14:03.165Z,315
2017-04-27T16:14:52.490Z,305
2017-04-27T16:15:40.808Z,295
2017-04-27T16:16:29.571Z,295
2017-04-27T16:20:57.137Z,290
2017-04-27T16:22:05.808Z,300
2017-04-27T16:23:15.021Z,300
2017-04-27T16:24:12.426Z,295
2017-04-27T16:25:07.782Z,295
2017-04-27T16:25:56.518Z,295
2017-04-27T16:26:47.270Z,295
2017-04-27T16:30:45.962Z,285
2017-04-27T16:31:40.487Z,280
2017-04-27T16:32:49.269Z,280
2017-04-27T16:33:45.968Z,280
2017-04-27T16:36:10.534Z,285
2017-04-27T16:36:59.039Z,285
2017-04-27T16:37:50.231Z,285
2017-04-27T16:38:38.870Z,290
2017-04-27T16:39:27.704Z,285
2017-04-27T16:40:20.933Z,285
2017-04-27T16:41:10.407Z,285
2017-04-27T16:42:00.896Z,285
2017-04-27T16:42:49.051Z,280
2017-04-27T16:43:37.780Z,275
2017-04-27T16:44:26.430Z,270
2017-04-27T16:45:16.073Z,270
2017-04-27T17:03:30.262Z,210
2017-04-27T17:09:11.381Z,180
2017-04-27T17:10:00.247Z,180
2017-04-27T17:14:23.062Z,180
2017-04-27T17:15:11.383Z,180
2017-04-27T17:16:00.134Z,180
2017-04-27T17:16:48.744Z,175
2017-04-27T17:22:41.279Z,155
2017-04-27T17:23:31.537Z,150
2017-04-27T17:27:45.474Z,140
2017-04-27T17:28:34.334Z,140
2017-04-27T17:29:23.837Z,140
2017-04-27T17:30:14.903Z,140
2017-04-27T17:31:03.371Z,135
2017-04-27T17:31:52.216Z,135
2017-04-27T17:32:40.818Z,135
2017-04-27T17:33:29.731Z,135
2017-04-27T17:34:17.939Z,130
2017-04-27T17:37:00.786Z,125
2017-04-27T17:37:49.309Z,125
2017-04-27T17:47:46.789Z,100
2017-04-27T18:01:57.805Z,70
2017-04-27T18:02:56.782Z,65
2017-04-27T18:03:45.248Z,65
2017-04-27T18:04:49.760Z,65
2017-04-27T18:05:38.302Z,65
2017-04-27T18:06:26.855Z,60
2017-04-27T18:07:15.788Z,60
2017-04-27T18:08:04.595Z,60
2017-04-27T18:08:59.845Z,55
2017-04-27T18:09:49.299Z,55
2017-04-27T18:10:38.247Z,55
2017-04-27T18:11:26.320Z,50
2017-04-27T18:12:15.445Z,50
2017-04-27T18:13:04.732Z,50
2017-04-27T18:13:52.758Z,50
2017-04-27T18:14:44.148Z,50
2017-04-27T18:15:32.688Z,55
2017-04-27T18:19:40.518Z,45
2017-04-27T18:20:29.716Z,40
2017-04-27T18:21:18.695Z,40
2017-04-27T18:22:10.795Z,40
2017-04-27T18:23:18.238Z,35
2017-04-27T18:24:07.603Z,30
2017-04-27T18:24:56.155Z,30
2017-04-27T18:25:45.022Z,30
2017-04-27T18:26:34.638Z,25
2017-04-27T18:27:23.044Z,25
2017-04-27T18:28:13.636Z,25
2017-04-27T18:29:02.599Z,25
2017-04-27T18:29:52.214Z,20
2017-04-27T18:30:43.744Z,20
2017-04-27T18:31:32.934Z,15
2017-04-27T18:32:22.127Z,15
2017-04-27T18:33:13.139Z,10
2017-04-27T18:34:02.661Z,10
2017-04-27T18:34:50.910Z,10
2017-04-27T18:35:40.275Z,10
2017-04-27T18:36:28.641Z,10
2017-04-27T18:37:23.855Z,5
2017-04-27T18:38:13.023Z,5
2017-04-27T18:39:02.566Z,5
2017-04-27T18:54:50.478Z,0
2017-04-27T18:55:40.867Z,0
2017-04-27T18:56:30.155Z,0
2017-04-27T18:57:19.563Z,0
2017-04-27T18:58:21.930Z,0
2017-04-27T18:59:09.184Z,0
2017-04-27T18:59:58.772Z,0
2017-04-27T19:00:52.997Z,0
2017-04-27T19:01:42.046Z,0
2017-04-27T19:02:48.591Z,0
2017-04-27T19:03:38.031Z,0
2017-04-27T19:04:28.150Z,0
2017-04-27T19:05:17.008Z,0
2017-04-27T19:06:09.400Z,0
2017-04-27T19:06:57.883Z,0
2017-04-27T19:07:48.929Z,0
2017-04-27T19:08:41.460Z,0
2017-04-27T19:09:30.125Z,0
2017-04-27T19:10:21.378Z,0
2017-04-27T19:11:13.441Z,0
2017-04-27T19:12:02.052Z,0
2017-04-27T19:14:27.810Z,0
2017-04-27T19:15:19.197Z,0
2017-04-27T19:16:08.004Z,0
2017-04-27T19:16:56.469Z,0
2017-04-27T19:17:45.148Z,0
2017-04-27T19:18:33.995Z,0
2017-04-27T19:19:22.575Z,0
2017-04-27T19:20:11.449Z,0
2017-04-27T19:27:59.962Z,0
2017-04-27T19:32:16.542Z,0
2017-04-27T19:33:05.692Z,0
2017-04-27T19:37:03.078Z,0
2017-04-27T19:37:53.581Z,0
2017-04-27T19:38:42.239Z,0
2017-04-27T19:39:38.447Z,0
2017-04-27T19:40:37.254Z,0
2017-04-27T19:41:26.136Z,0
2017-04-27T19:45:54.583Z,0
2017-04-27T19:57:05.819Z,0
2017-04-27T19:57:53.957Z,0
2017-04-27T19:58:43.286Z,0
2017-04-27T20:01:23.579Z,0
2017-04-27T20:02:12.070Z,0
2017-04-27T20:06:29.824Z,0
2017-04-27T20:12:45.979Z,0
2017-04-27T20:13:36.042Z,0
2017-04-27T20:24:19.872Z,0
2017-04-27T20:31:20.007Z,0
2017-04-27T20:32:13.345Z,0
2017-04-27T21:13:34.622Z,0
2017-04-27T21:14:23.995Z,0
2017-04-27T21:15:13.798Z,0
2017-04-27T21:16:02.814Z,0
2017-04-27T21:16:51.409Z,0
2017-04-27T21:39:47.580Z,0
2017-04-27T21:43:02.141Z,0
2017-04-27T21:43:56.621Z,0
2017-04-27T21:51:31.811Z,0
2017-04-27T21:52:27.480Z,0
2017-04-27T21:53:18.729Z,0
2017-04-27T21:54:08.593Z,0
2017-04-27T21:55:01.226Z,0
2017-04-27T22:02:37.744Z,0
2017-04-27T22:03:26.340Z,0
2017-04-27T22:04:15.351Z,0
2017-04-27T22:05:03.707Z,0
2017-04-27T22:05:52.828Z,0
2017-04-27T22:51:16.719Z,0
2017-04-27T22:52:05.029Z,0
2017-04-27T22:52:54.136Z,0
2017-04-27T22:53:42.727Z,0
2017-04-27T22:54:31.340Z,0
2017-04-27T22:55:19.766Z,0
2017-04-27T22:56:08.273Z,0
2017-04-27T22:56:57.802Z,0
2017-04-27T23:12:44.564Z,0
2017-04-27T23:13:33.934Z,0
2017-04-27T23:17:32.358Z,0
2017-04-27T23:18:23.739Z,0
2017-04-27T23:19:12.860Z,0
2017-04-27T23:20:02.967Z,0
